createdAt,value
2022-09-03T00:00:40.077Z,94144.13
2022-09-03T00:03:17.856Z,94144.97
2022-09-03T00:06:10.616Z,94141.09
2022-09-03T00:08:42.351Z,94145.00
2022-09-03T00:11:26.251Z,94154.59
2022-09-03T00:14:19.480Z,94136.09
2022-09-03T00:16:57.797Z,94146.94
2022-09-03T00:19:29.155Z,94145.38
2022-09-03T00:22:00.396Z,94130.72
2022-09-03T00:24:31.069Z,94132.81
2022-09-03T00:27:03.297Z,94131.94
2022-09-03T00:29:57.832Z,94128.00
2022-09-03T00:33:10.127Z,94124.94
2022-09-03T00:35:40.586Z,94128.44
2022-09-03T00:38:08.234Z,94126.44
2022-09-03T00:41:00.633Z,94127.50
2022-09-03T00:43:48.202Z,94124.59
2022-09-03T00:46:36.337Z,94131.44
2022-09-03T00:49:28.200Z,94134.19
2022-09-03T00:52:11.524Z,94128.50
2022-09-03T00:54:46.918Z,94137.97
2022-09-03T00:57:32.252Z,94141.41
2022-09-03T01:00:10.412Z,94139.94
2022-09-03T01:03:06.952Z,94139.88
2022-09-03T01:05:56.496Z,94140.81
2022-09-03T01:08:44.048Z,94136.84
2022-09-03T01:11:20.016Z,94142.94
2022-09-03T01:13:52.617Z,94136.84
2022-09-03T01:16:37.743Z,94133.06
2022-09-03T01:19:12.283Z,94139.97
2022-09-03T01:21:55.356Z,94139.41
2022-09-03T01:24:32.871Z,94153.03
2022-09-03T01:27:15.321Z,94153.44
2022-09-03T01:29:55.647Z,94160.28
2022-09-03T01:32:41.082Z,94162.75
2022-09-03T01:35:42.611Z,94167.06
2022-09-03T01:38:27.533Z,94166.38
2022-09-03T01:41:28.674Z,94172.22
2022-09-03T01:44:22.333Z,94170.31
2022-09-03T01:46:56.540Z,94160.47
2022-09-03T01:49:41.368Z,94157.47
2022-09-03T01:52:29.617Z,94154.38
2022-09-03T01:55:33.397Z,94159.06
2022-09-03T01:58:12.945Z,94156.41
2022-09-03T02:00:43.976Z,94154.50
2022-09-03T02:03:12.689Z,94145.25
2022-09-03T02:05:39.564Z,94144.41
2022-09-03T02:08:09.007Z,94147.53
2022-09-03T02:10:43.830Z,94153.34
2022-09-03T02:13:38.716Z,94161.59
2022-09-03T02:16:15.908Z,94159.41
2022-09-03T02:18:46.964Z,94149.53
2022-09-03T02:21:18.075Z,94151.59
2022-09-03T02:23:44.849Z,94149.25
2022-09-03T02:26:14.687Z,94150.13
2022-09-03T02:28:41.790Z,94159.56
2022-09-03T02:31:08.568Z,94165.41
2022-09-03T02:33:40.918Z,94167.94
2022-09-03T02:36:10.431Z,94166.00
2022-09-03T02:38:37.434Z,94161.56
2022-09-03T02:41:04.175Z,94162.00
2022-09-03T02:43:42.131Z,94168.09
2022-09-03T02:46:18.085Z,94170.94
2022-09-03T02:48:44.741Z,94176.47
2022-09-03T02:51:14.339Z,94173.94
2022-09-03T02:53:42.533Z,94189.19
2022-09-03T02:56:09.250Z,94179.72
2022-09-03T02:58:35.928Z,94177.78
2022-09-03T03:01:03.956Z,94170.59
2022-09-03T03:03:30.757Z,94175.59
2022-09-03T03:06:01.608Z,94172.84
2022-09-03T03:08:29.141Z,94170.75
2022-09-03T03:10:58.864Z,94176.16
2022-09-03T03:13:27.292Z,94171.38
2022-09-03T03:15:59.021Z,94172.69
2022-09-03T03:18:25.901Z,94159.44
2022-09-03T03:20:52.719Z,94160.13
2022-09-03T03:23:19.571Z,94156.56
2022-09-03T03:25:46.847Z,94159.13
2022-09-03T03:28:16.426Z,94157.03
2022-09-03T03:30:43.208Z,94163.97
2022-09-03T03:33:10.432Z,94173.72
2022-09-03T03:35:37.486Z,94164.28
2022-09-03T03:38:05.137Z,94161.81
2022-09-03T03:40:32.035Z,94161.03
2022-09-03T03:42:59.027Z,94166.91
2022-09-03T03:45:25.837Z,94161.69
2022-09-03T03:47:52.936Z,94168.09
2022-09-03T03:50:19.739Z,94174.03
2022-09-03T03:52:46.391Z,94171.47
2022-09-03T03:55:13.113Z,94173.53
2022-09-03T03:57:42.762Z,94173.69
2022-09-03T04:00:09.980Z,94184.47
2022-09-03T04:02:39.192Z,94180.13
2022-09-03T04:05:06.437Z,94175.84
2022-09-03T04:07:34.497Z,94172.25
2022-09-03T04:10:01.434Z,94173.44
2022-09-03T04:12:28.126Z,94167.22
2022-09-03T04:14:54.782Z,94170.28
2022-09-03T04:17:25.148Z,94169.16
2022-09-03T04:19:52.158Z,94174.56
2022-09-03T04:22:19.723Z,94171.03
2022-09-03T04:24:46.358Z,94170.28
2022-09-03T04:27:13.100Z,94171.38
2022-09-03T04:29:39.867Z,94181.75
2022-09-03T04:32:24.993Z,94188.47
2022-09-03T04:34:51.622Z,94191.38
2022-09-03T04:37:19.945Z,94200.84
2022-09-03T04:39:46.846Z,94206.72
2022-09-03T04:42:13.537Z,94203.81
2022-09-03T04:44:41.210Z,94206.22
2022-09-03T04:47:08.057Z,94201.72
2022-09-03T04:49:34.876Z,94219.28
2022-09-03T04:52:02.682Z,94225.72
2022-09-03T04:54:29.641Z,94228.13
2022-09-03T04:56:56.779Z,94231.13
2022-09-03T04:59:23.413Z,94233.81
2022-09-03T05:01:50.168Z,94231.31
2022-09-03T05:04:16.824Z,94232.44
2022-09-03T05:06:43.545Z,94237.72
2022-09-03T05:09:10.190Z,94235.25
2022-09-03T05:11:37.103Z,94233.72
2022-09-03T05:14:05.961Z,94237.09
2022-09-03T05:16:33.137Z,94242.41
2022-09-03T05:19:01.310Z,94234.72
2022-09-03T05:21:29.382Z,94229.56
2022-09-03T05:23:56.539Z,94235.47
2022-09-03T05:26:25.751Z,94235.09
2022-09-03T05:29:04.370Z,94235.09
2022-09-03T05:31:32.287Z,94238.94
2022-09-03T05:34:01.567Z,94234.22
2022-09-03T05:36:31.978Z,94246.41
2022-09-03T05:39:01.808Z,94246.81
2022-09-03T05:41:29.804Z,94242.59
2022-09-03T05:43:59.337Z,94248.00
2022-09-03T05:46:34.347Z,94245.66
2022-09-03T05:49:06.062Z,94248.00
2022-09-03T05:51:34.114Z,94252.81
2022-09-03T05:54:01.935Z,94250.00
2022-09-03T05:56:30.644Z,94254.81
2022-09-03T05:59:05.796Z,94251.53
2022-09-03T06:01:34.906Z,94248.50
2022-09-03T06:04:04.335Z,94249.38
2022-09-03T06:06:33.581Z,94248.19
2022-09-03T06:09:06.796Z,94243.38
2022-09-03T06:11:35.506Z,94257.09
2022-09-03T06:14:08.562Z,94257.91
2022-09-03T06:16:41.186Z,94251.19
2022-09-03T06:19:13.274Z,94256.38
2022-09-03T06:21:43.002Z,94250.53
2022-09-03T06:24:17.309Z,94260.13
2022-09-03T06:26:45.078Z,94259.22
2022-09-03T06:29:12.530Z,94265.34
2022-09-03T06:31:39.916Z,94263.91
2022-09-03T06:34:06.724Z,94266.38
2022-09-03T06:36:33.721Z,94273.25
2022-09-03T06:39:00.516Z,94263.41
2022-09-03T06:41:31.825Z,94268.44
2022-09-03T06:44:03.250Z,94275.91
2022-09-03T06:46:35.281Z,94266.63
2022-09-03T06:49:02.655Z,94271.66
2022-09-03T06:51:31.241Z,94279.56
2022-09-03T06:54:06.425Z,94279.31
2022-09-03T06:56:39.576Z,94275.75
2022-09-03T06:59:16.080Z,94274.78
2022-09-03T07:01:52.956Z,94289.84
2022-09-03T07:04:20.329Z,94283.94
2022-09-03T07:06:47.714Z,94282.75
2022-09-03T07:09:15.873Z,94282.94
2022-09-03T07:11:47.990Z,94295.75
2022-09-03T07:14:19.817Z,94285.28
2022-09-03T07:16:47.985Z,94285.25
2022-09-03T07:19:15.662Z,94296.78
2022-09-03T07:21:48.406Z,94289.84
2022-09-03T07:24:16.823Z,94294.16
2022-09-03T07:26:48.821Z,94286.94
2022-09-03T07:29:16.574Z,94294.00
2022-09-03T07:31:44.265Z,94298.59
2022-09-03T07:34:12.947Z,94304.03
2022-09-03T07:36:48.657Z,94308.03
2022-09-03T07:39:18.027Z,94303.75
2022-09-03T07:41:46.231Z,94312.97
2022-09-03T07:44:22.888Z,94305.66
2022-09-03T07:46:51.435Z,94305.75
2022-09-03T07:49:18.757Z,94308.84
2022-09-03T07:51:46.645Z,94302.22
2022-09-03T07:54:13.388Z,94312.56
2022-09-03T07:56:41.188Z,94310.16
2022-09-03T07:59:08.949Z,94314.00
2022-09-03T08:01:36.933Z,94310.75
2022-09-03T08:04:07.047Z,94317.03
2022-09-03T08:06:40.315Z,94313.41
2022-09-03T08:09:11.442Z,94315.72
2022-09-03T08:11:40.316Z,94312.44
2022-09-03T08:14:09.532Z,94318.03
2022-09-03T08:16:39.696Z,94313.44
2022-09-03T08:19:07.699Z,94320.59
2022-09-03T08:21:35.189Z,94310.81
2022-09-03T08:24:05.889Z,94312.47
2022-09-03T08:26:37.835Z,94308.66
2022-09-03T08:29:05.776Z,94311.72
2022-09-03T08:31:34.470Z,94307.69
2022-09-03T08:34:04.939Z,94304.25
2022-09-03T08:36:34.041Z,94304.06
2022-09-03T08:39:08.216Z,94301.34
2022-09-03T08:41:53.414Z,94301.44
2022-09-03T08:44:35.250Z,94303.16
2022-09-03T08:47:20.830Z,94308.97
2022-09-03T08:50:22.890Z,94299.66
2022-09-03T08:53:02.067Z,94302.59
2022-09-03T08:55:31.172Z,94302.06
2022-09-03T08:58:06.406Z,94306.66
2022-09-03T09:01:01.625Z,94309.59
2022-09-03T09:04:09.767Z,94307.56
2022-09-03T09:06:52.590Z,94309.34
2022-09-03T09:09:19.190Z,94312.59
2022-09-03T09:11:46.182Z,94311.97
2022-09-03T09:14:39.400Z,94311.97
2022-09-03T09:17:13.312Z,94314.00
2022-09-03T09:19:47.367Z,94314.59
2022-09-03T09:22:30.546Z,94312.56
2022-09-03T09:25:02.253Z,94314.69
2022-09-03T09:27:29.873Z,94315.75
2022-09-03T09:30:01.919Z,94316.47
2022-09-03T09:32:29.148Z,94319.63
2022-09-03T09:34:55.813Z,94319.59
2022-09-03T09:37:22.525Z,94320.81
2022-09-03T09:39:57.863Z,94322.31
2022-09-03T09:42:25.767Z,94310.88
2022-09-03T09:44:52.823Z,94321.44
2022-09-03T09:47:38.659Z,94313.94
2022-09-03T09:50:25.097Z,94325.31
2022-09-03T09:53:14.625Z,94319.22
2022-09-03T09:55:52.801Z,94315.31
2022-09-03T09:58:21.314Z,94317.66
2022-09-03T10:01:00.571Z,94329.28
2022-09-03T10:03:29.958Z,94323.78
2022-09-03T10:06:28.941Z,94319.88
2022-09-03T10:09:10.907Z,94324.19
2022-09-03T10:11:41.173Z,94327.03
2022-09-03T10:14:25.316Z,94315.22
2022-09-03T10:17:02.540Z,94314.22
2022-09-03T10:19:40.553Z,94304.09
2022-09-03T10:22:17.944Z,94311.69
2022-09-03T10:24:58.061Z,94305.97
2022-09-03T10:27:25.966Z,94307.59
2022-09-03T10:29:53.463Z,94316.22
2022-09-03T10:33:01.150Z,94317.41
2022-09-03T10:35:45.842Z,94317.69
2022-09-03T10:38:18.774Z,94311.22
2022-09-03T10:41:14.824Z,94305.50
2022-09-03T10:43:58.295Z,94314.63
2022-09-03T10:46:35.907Z,94315.56
2022-09-03T10:49:40.666Z,94307.38
2022-09-03T10:52:20.788Z,94319.22
2022-09-03T10:55:24.530Z,94325.59
2022-09-03T10:57:56.791Z,94319.00
2022-09-03T11:00:24.342Z,94314.38
2022-09-03T11:05:42.706Z,94311.41
2022-09-03T11:08:22.051Z,94314.25
2022-09-03T11:10:54.922Z,94311.53
2022-09-03T11:13:35.480Z,94322.81
2022-09-03T11:16:06.735Z,94311.06
2022-09-03T11:18:41.217Z,94319.88
2022-09-03T11:21:13.179Z,94319.28
2022-09-03T11:23:47.662Z,94326.50
2022-09-03T11:26:18.681Z,94316.25
2022-09-03T11:28:59.775Z,94320.22
2022-09-03T11:31:59.240Z,94316.19
2022-09-03T11:34:33.969Z,94313.75
2022-09-03T11:37:15.723Z,94312.59
2022-09-03T11:39:42.495Z,94309.50
2022-09-03T11:42:28.362Z,94313.13
2022-09-03T11:45:01.028Z,94301.41
2022-09-03T11:47:43.804Z,94311.22
2022-09-03T11:50:26.159Z,94318.69
2022-09-03T11:53:06.777Z,94316.78
2022-09-03T11:55:46.438Z,94322.75
2022-09-03T11:58:25.508Z,94322.34
2022-09-03T12:00:54.213Z,94312.72
2022-09-03T12:03:28.688Z,94306.41
2022-09-03T12:06:13.843Z,94314.50
2022-09-03T12:09:24.551Z,94306.16
2022-09-03T12:12:07.055Z,94306.69
2022-09-03T12:14:39.519Z,94299.63
2022-09-03T12:17:21.271Z,94297.19
2022-09-03T12:19:55.908Z,94287.59
2022-09-03T12:22:28.806Z,94286.09
2022-09-03T12:24:56.301Z,94291.41
2022-09-03T12:27:26.230Z,94299.94
2022-09-03T12:30:00.561Z,94295.56
2022-09-03T12:32:39.379Z,94294.88
2022-09-03T12:38:09.900Z,94289.69
2022-09-03T12:43:38.205Z,94302.78
2022-09-03T12:46:13.729Z,94285.75
2022-09-03T12:49:30.040Z,94284.81
2022-09-03T12:51:53.363Z,94281.19
2022-09-03T12:54:23.138Z,94280.78
2022-09-03T12:56:56.651Z,94282.25
2022-09-03T12:59:25.062Z,94277.69
2022-09-03T13:01:54.984Z,94276.41
2022-09-03T13:04:28.150Z,94274.97
2022-09-03T13:07:06.004Z,94272.34
2022-09-03T13:09:37.909Z,94269.78
2022-09-03T13:12:06.007Z,94272.97
2022-09-03T13:14:44.200Z,94253.59
2022-09-03T13:17:38.738Z,94258.00
2022-09-03T13:20:17.709Z,94255.16
2022-09-03T13:23:05.234Z,94260.38
2022-09-03T13:25:41.950Z,94261.44
2022-09-03T13:28:27.505Z,94252.28
2022-09-03T13:31:02.309Z,94245.53
2022-09-03T13:33:42.182Z,94252.50
2022-09-03T13:36:28.622Z,94258.50
2022-09-03T13:39:06.113Z,94257.47
2022-09-03T13:42:00.201Z,94258.31
2022-09-03T13:44:41.132Z,94251.06
2022-09-03T13:47:28.742Z,94255.13
2022-09-03T13:50:22.730Z,94249.81
2022-09-03T13:53:01.219Z,94248.25
2022-09-03T13:55:43.162Z,94251.25
2022-09-03T13:58:23.068Z,94243.09
2022-09-03T14:01:06.194Z,94256.00
2022-09-03T14:03:56.382Z,94257.81
2022-09-03T14:06:36.842Z,94259.56
2022-09-03T14:09:18.566Z,94258.47
2022-09-03T14:11:51.228Z,94262.44
2022-09-03T14:14:31.572Z,94252.03
2022-09-03T14:17:10.146Z,94257.22
2022-09-03T14:19:48.838Z,94255.72
2022-09-03T14:22:25.690Z,94245.56
2022-09-03T14:25:26.437Z,94266.97
2022-09-03T14:27:55.371Z,94259.03
2022-09-03T14:30:55.586Z,94252.34
2022-09-03T14:33:25.643Z,94256.47
2022-09-03T14:35:58.985Z,94253.09
2022-09-03T14:38:56.025Z,94256.59
2022-09-03T14:41:28.247Z,94251.03
2022-09-03T14:43:57.895Z,94250.66
2022-09-03T14:46:45.939Z,94250.50
2022-09-03T14:49:31.163Z,94256.31
2022-09-03T14:52:17.244Z,94249.44
2022-09-03T14:55:12.810Z,94266.69
2022-09-03T14:58:20.487Z,94265.28
2022-09-03T15:01:11.427Z,94264.28
2022-09-03T15:03:44.084Z,94257.91
2022-09-03T15:06:37.917Z,94269.75
2022-09-03T15:09:28.468Z,94268.91
2022-09-03T15:12:03.614Z,94274.53
2022-09-03T15:14:56.036Z,94270.94
2022-09-03T15:17:28.402Z,94264.72
2022-09-03T15:20:32.502Z,94269.06
2022-09-03T15:23:18.485Z,94275.06
2022-09-03T15:25:50.713Z,94272.09
2022-09-03T15:28:34.577Z,94278.16
2022-09-03T15:31:20.199Z,94275.72
2022-09-03T15:33:56.852Z,94267.34
2022-09-03T15:36:35.002Z,94263.81
2022-09-03T15:39:06.984Z,94276.28
2022-09-03T15:42:02.805Z,94281.59
2022-09-03T15:44:37.967Z,94284.03
2022-09-03T15:47:14.428Z,94286.81
2022-09-03T15:50:07.542Z,94288.44
2022-09-03T15:52:54.197Z,94292.59
2022-09-03T15:55:42.432Z,94282.66
2022-09-03T15:58:35.377Z,94286.47
2022-09-03T16:01:27.076Z,94289.50
2022-09-03T16:03:56.895Z,94282.22
2022-09-03T16:06:39.220Z,94287.19
2022-09-03T16:09:10.770Z,94293.13
2022-09-03T16:11:51.745Z,94293.06
2022-09-03T16:14:25.580Z,94301.09
2022-09-03T16:17:02.080Z,94306.47
2022-09-03T16:19:38.082Z,94309.91
2022-09-03T16:22:14.045Z,94307.81
2022-09-03T16:25:07.298Z,94311.75
2022-09-03T16:27:51.496Z,94314.38
2022-09-03T16:30:37.181Z,94318.25
2022-09-03T16:33:27.917Z,94329.03
2022-09-03T16:36:12.469Z,94331.31
2022-09-03T16:39:10.750Z,94322.00
2022-09-03T16:41:46.439Z,94330.72
2022-09-03T16:44:25.185Z,94329.28
2022-09-03T16:47:16.640Z,94330.06
2022-09-03T16:50:11.121Z,94333.75
2022-09-03T16:53:11.186Z,94329.34
2022-09-03T16:56:04.452Z,94324.19
2022-09-03T16:58:51.316Z,94333.22
2022-09-03T17:01:36.297Z,94334.28
2022-09-03T17:04:21.516Z,94336.03
2022-09-03T17:07:23.815Z,94334.03
2022-09-03T17:09:59.575Z,94336.69
2022-09-03T17:13:03.997Z,94348.00
2022-09-03T17:15:44.864Z,94362.03
2022-09-03T17:18:40.621Z,94356.34
2022-09-03T17:21:10.283Z,94356.13
2022-09-03T17:24:06.313Z,94357.25
2022-09-03T17:26:45.764Z,94355.03
2022-09-03T17:29:30.921Z,94361.19
2022-09-03T17:32:07.581Z,94362.06
2022-09-03T17:35:06.413Z,94384.09
2022-09-03T17:37:52.838Z,94394.47
2022-09-03T17:40:28.099Z,94396.41
2022-09-03T17:43:14.610Z,94400.94
2022-09-03T17:45:51.665Z,94403.13
2022-09-03T17:48:24.266Z,94405.16
2022-09-03T17:50:53.537Z,94405.84
2022-09-03T17:53:32.383Z,94413.16
2022-09-03T17:56:06.481Z,94418.41
2022-09-03T17:58:43.862Z,94424.31
2022-09-03T18:01:10.447Z,94419.06
2022-09-03T18:03:46.078Z,94421.50
2022-09-03T18:06:40.705Z,94421.00
2022-09-03T18:09:24.016Z,94432.97
2022-09-03T18:11:57.102Z,94433.25
2022-09-03T18:14:34.235Z,94428.19
2022-09-03T18:17:05.612Z,94432.09
2022-09-03T18:20:09.605Z,94444.34
2022-09-03T18:23:20.234Z,94442.66
2022-09-03T18:26:20.688Z,94434.66
2022-09-03T18:29:10.669Z,94446.38
2022-09-03T18:31:55.934Z,94447.88
2022-09-03T18:34:49.673Z,94443.88
2022-09-03T18:37:39.609Z,94438.78
2022-09-03T18:40:27.439Z,94451.47
2022-09-03T18:43:33.640Z,94445.59
2022-09-03T18:49:54.426Z,94458.31
2022-09-03T18:53:01.072Z,94451.88
2022-09-03T18:56:08.201Z,94452.22
2022-09-03T18:59:16.670Z,94445.78
2022-09-03T19:02:02.826Z,94440.66
2022-09-03T19:05:33.174Z,94456.31
2022-09-03T19:08:41.455Z,94458.03
2022-09-03T19:11:43.149Z,94459.31
2022-09-03T19:14:53.051Z,94460.56
2022-09-03T19:18:00.798Z,94454.84
2022-09-03T19:20:51.107Z,94468.06
2022-09-03T19:23:36.278Z,94468.44
2022-09-03T19:26:37.614Z,94476.91
2022-09-03T19:29:30.297Z,94477.63
2022-09-03T19:32:26.811Z,94475.16
2022-09-03T19:35:36.687Z,94482.25
2022-09-03T19:38:28.096Z,94485.19
2022-09-03T19:41:21.421Z,94495.59
2022-09-03T19:44:33.963Z,94486.38
2022-09-03T19:47:22.635Z,94484.44
2022-09-03T19:50:22.967Z,94494.59
2022-09-03T19:53:13.170Z,94492.13
2022-09-03T19:56:07.571Z,94501.47
2022-09-03T19:58:57.316Z,94498.72
2022-09-03T20:01:48.251Z,94500.06
2022-09-03T20:04:35.003Z,94499.56
2022-09-03T20:07:23.639Z,94492.69
2022-09-03T20:10:10.639Z,94497.97
2022-09-03T20:12:43.414Z,94494.88
2022-09-03T20:15:10.554Z,94487.38
2022-09-03T20:17:52.697Z,94494.53
2022-09-03T20:20:25.260Z,94503.66
2022-09-03T20:22:59.652Z,94499.63
2022-09-03T20:26:00.146Z,94498.72
2022-09-03T20:28:45.841Z,94502.63
2022-09-03T20:31:44.024Z,94510.50
2022-09-03T20:34:16.529Z,94513.97
2022-09-03T20:37:04.668Z,94520.03
2022-09-03T20:40:12.355Z,94514.41
2022-09-03T20:42:55.273Z,94511.19
2022-09-03T20:45:46.431Z,94516.13
2022-09-03T20:48:36.801Z,94519.38
2022-09-03T20:51:12.005Z,94519.19
2022-09-03T20:54:15.372Z,94510.00
2022-09-03T20:57:02.907Z,94531.53
2022-09-03T21:00:03.492Z,94528.97
2022-09-03T21:02:58.297Z,94525.06
2022-09-03T21:05:30.445Z,94529.66
2022-09-03T21:08:21.290Z,94521.44
2022-09-03T21:11:09.774Z,94524.56
2022-09-03T21:13:52.044Z,94524.97
2022-09-03T21:16:24.557Z,94518.81
2022-09-03T21:19:06.903Z,94521.06
2022-09-03T21:21:59.605Z,94507.34
2022-09-03T21:24:35.018Z,94506.56
2022-09-03T21:27:15.094Z,94513.19
2022-09-03T21:29:47.836Z,94505.28
2022-09-03T21:32:33.649Z,94512.13
2022-09-03T21:35:15.191Z,94509.75
2022-09-03T21:37:58.150Z,94514.13
2022-09-03T21:40:31.401Z,94517.00
2022-09-03T21:43:08.478Z,94517.88
2022-09-03T21:45:52.051Z,94510.91
2022-09-03T21:48:25.522Z,94513.56
2022-09-03T21:50:58.824Z,94509.72
2022-09-03T21:53:42.471Z,94514.78
2022-09-03T21:56:34.462Z,94513.94
2022-09-03T21:59:26.350Z,94511.50
2022-09-03T22:02:03.434Z,94509.94
2022-09-03T22:04:30.838Z,94506.72
2022-09-03T22:07:00.322Z,94504.50
2022-09-03T22:09:40.966Z,94507.50
2022-09-03T22:12:20.329Z,94512.22
2022-09-03T22:14:51.811Z,94516.16
2022-09-03T22:17:47.051Z,94516.06
2022-09-03T22:20:15.597Z,94519.91
2022-09-03T22:22:56.697Z,94526.34
2022-09-03T22:25:37.139Z,94524.94
2022-09-03T22:28:06.593Z,94531.13
2022-09-03T22:31:24.736Z,94535.75
2022-09-03T22:33:56.727Z,94523.22
2022-09-03T22:36:40.238Z,94528.31
2022-09-03T22:39:18.079Z,94531.13
2022-09-03T22:42:18.019Z,94527.50
2022-09-03T22:44:59.532Z,94524.78
2022-09-03T22:47:50.866Z,94525.09
2022-09-03T22:50:36.189Z,94526.25
2022-09-03T22:53:11.915Z,94522.72
2022-09-03T22:55:45.798Z,94515.50
2022-09-03T22:58:19.706Z,94513.94
2022-09-03T23:00:57.600Z,94521.66
2022-09-03T23:03:39.170Z,94510.00
2022-09-03T23:06:16.621Z,94515.78
2022-09-03T23:08:56.638Z,94510.34
2022-09-03T23:11:31.550Z,94517.84
2022-09-03T23:14:08.266Z,94516.38
2022-09-03T23:16:46.611Z,94520.72
2022-09-03T23:22:07.205Z,94533.47
2022-09-03T23:24:36.923Z,94538.88
2022-09-03T23:27:10.075Z,94537.28
2022-09-03T23:29:51.232Z,94533.09
2022-09-03T23:32:18.227Z,94531.84
2022-09-03T23:34:44.949Z,94531.84
2022-09-03T23:37:33.477Z,94527.56
2022-09-03T23:40:28.695Z,94534.13
2022-09-03T23:43:17.115Z,94533.34
2022-09-03T23:46:15.458Z,94546.16
2022-09-03T23:48:54.343Z,94545.00
2022-09-03T23:51:29.855Z,94545.00
2022-09-03T23:54:16.724Z,94541.97
2022-09-03T23:57:08.370Z,94545.03
